Time;durP1;ratioP1;P1;durP2;ratioP2;P2;SDS_P1;SDS_P2;PMS_P1;PMS_P2;Temp;Humidity;BMP_temperature;BMP_pressure;BME280_temperature;BME280_humidity;BME280_pressure;Samples;Min_cycle;Max_cycle;Signal;HPM_P1;HPM_P2
2021/11/04 00:00:12;;;;;;;5.80;1.88;;;5.50;88.70;;;;;;5080299;28;20119;-84
2021/11/04 00:02:43;;;;;;;6.25;2.15;;;5.50;88.60;;;;;;5075213;28;20049;-84
2021/11/04 00:05:13;;;;;;;4.68;2.15;;;5.40;88.60;;;;;;5085731;28;20036;-83
2021/11/04 00:07:42;;;;;;;4.22;1.95;;;5.30;88.50;;;;;;5113463;28;20052;-84
2021/11/04 00:10:11;;;;;;;4.25;1.75;;;5.30;88.50;;;;;;5096194;28;20036;-84
2021/11/04 00:12:39;;;;;;;5.68;1.75;;;5.30;88.50;;;;;;5089451;28;20040;-83
2021/11/04 00:15:08;;;;;;;4.85;2.20;;;5.20;88.60;;;;;;5104326;28;20055;-84
2021/11/04 00:17:36;;;;;;;3.97;2.25;;;5.10;88.60;;;;;;5094965;28;20474;-84
2021/11/04 00:20:06;;;;;;;4.78;2.33;;;5.00;88.80;;;;;;5109173;28;20043;-84
2021/11/04 00:22:35;;;;;;;4.25;1.95;;;4.90;88.90;;;;;;5115012;28;20039;-84
2021/11/04 00:25:04;;;;;;;5.68;1.83;;;4.80;89.00;;;;;;5097726;28;20039;-84
2021/11/04 00:27:32;;;;;;;3.28;1.73;;;4.80;89.30;;;;;;5076125;28;20051;-84
2021/11/04 00:30:00;;;;;;;3.05;2.00;;;4.70;89.30;;;;;;5068174;28;20467;-84
2021/11/04 00:32:29;;;;;;;3.08;1.75;;;4.70;89.50;;;;;;5079313;28;20055;-84
2021/11/04 00:34:57;;;;;;;3.38;1.88;;;4.70;89.50;;;;;;5088809;28;20055;-83
2021/11/04 00:37:26;;;;;;;5.63;1.90;;;4.60;89.70;;;;;;5106140;28;20040;-83
2021/11/04 00:39:54;;;;;;;4.70;2.17;;;4.70;89.60;;;;;;5093434;28;20406;-83
2021/11/04 00:42:23;;;;;;;4.45;1.83;;;4.70;89.50;;;;;;5084883;28;20410;-84
2021/11/04 00:44:51;;;;;;;2.78;1.70;;;4.70;89.50;;;;;;5075766;28;20052;-86
2021/11/04 00:47:19;;;;;;;3.92;2.08;;;4.70;89.40;;;;;;5104420;28;20515;-84
2021/11/04 00:49:46;;;;;;;4.13;1.83;;;4.60;89.50;;;;;;5090664;28;20052;-84
2021/11/04 00:52:15;;;;;;;7.90;2.00;;;4.60;89.40;;;;;;5079745;28;20055;-85
2021/11/04 00:54:43;;;;;;;7.00;2.47;;;4.60;89.50;;;;;;5075193;28;20383;-85
2021/11/04 00:57:12;;;;;;;6.32;2.15;;;4.50;89.60;;;;;;5089515;28;20052;-84
2021/11/04 00:59:40;;;;;;;4.00;2.17;;;4.40;89.60;;;;;;5106845;28;20044;-85
2021/11/04 01:02:08;;;;;;;5.40;2.22;;;4.30;89.80;;;;;;5075063;28;20482;-84
2021/11/04 01:04:35;;;;;;;4.47;2.53;;;4.30;89.80;;;;;;5082788;28;20405;-85
2021/11/04 01:07:04;;;;;;;11.82;2.72;;;4.30;90.00;;;;;;5081595;28;20035;-85
2021/11/04 01:09:31;;;;;;;6.20;2.80;;;4.20;90.20;;;;;;5074455;28;20048;-84
2021/11/04 01:11:59;;;;;;;6.78;2.40;;;4.20;90.20;;;;;;5072543;28;20040;-85
2021/11/04 01:14:26;;;;;;;9.82;2.60;;;4.10;90.30;;;;;;5076096;28;20056;-84
2021/11/04 01:16:54;;;;;;;7.57;2.95;;;4.10;90.50;;;;;;5074290;28;20241;-83
2021/11/04 01:19:22;;;;;;;7.45;2.47;;;4.20;90.60;;;;;;5055136;28;20401;-84
2021/11/04 01:21:49;;;;;;;3.40;2.25;;;4.30;90.60;;;;;;5072472;28;20056;-85
2021/11/04 01:24:17;;;;;;;4.68;2.47;;;4.30;90.50;;;;;;5093398;28;20409;-84
2021/11/04 01:26:45;;;;;;;3.22;2.20;;;4.40;90.30;;;;;;5079594;28;20048;-85
2021/11/04 01:29:12;;;;;;;4.78;2.20;;;4.50;90.20;;;;;;5085944;28;20043;-83
2021/11/04 01:31:40;;;;;;;6.57;2.00;;;4.60;90.00;;;;;;5092888;28;20051;-84
2021/11/04 01:34:08;;;;;;;5.45;1.83;;;4.80;89.80;;;;;;5083997;28;20044;-84
2021/11/04 01:36:35;;;;;;;5.85;1.88;;;4.80;89.70;;;;;;5091321;28;20047;-84
2021/11/04 01:39:04;;;;;;;4.22;2.10;;;4.90;89.40;;;;;;5092472;28;20036;-85
2021/11/04 01:41:31;;;;;;;2.40;1.48;;;5.00;89.20;;;;;;5077820;28;20067;-84
2021/11/04 01:44:00;;;;;;;3.17;1.63;;;5.00;89.00;;;;;;5089275;28;20048;-81
2021/11/04 01:46:28;;;;;;;3.00;1.50;;;5.10;88.60;;;;;;5075545;28;20053;-84
2021/11/04 01:48:55;;;;;;;2.88;1.63;;;5.20;88.40;;;;;;5088895;28;20052;-85
2021/11/04 01:51:23;;;;;;;2.38;1.38;;;5.20;88.10;;;;;;5085551;28;20051;-85
2021/11/04 01:53:51;;;;;;;3.53;1.48;;;5.20;87.70;;;;;;5081651;28;20055;-85
2021/11/04 01:56:19;;;;;;;5.13;1.42;;;5.30;87.50;;;;;;5092800;28;20044;-85
2021/11/04 01:58:46;;;;;;;2.25;1.17;;;5.30;87.40;;;;;;5087873;28;20044;-84
2021/11/04 02:01:15;;;;;;;3.35;1.20;;;5.30;87.20;;;;;;5076973;28;20052;-83
2021/11/04 02:03:50;;;;;;;3.17;1.25;;;5.30;87.00;;;;;;5092881;28;20063;-83
2021/11/04 02:06:43;;;;;;;3.00;1.30;;;5.30;86.60;;;;;;5092922;28;20044;-83
2021/11/04 02:09:28;;;;;;;3.13;1.52;;;5.30;86.40;;;;;;5078936;28;20048;-84
2021/11/04 02:12:11;;;;;;;1.30;0.90;;;5.30;86.20;;;;;;5071592;28;20422;-84
2021/11/04 02:14:43;;;;;;;3.33;1.02;;;5.20;86.20;;;;;;5083743;28;20044;-84
2021/11/04 02:17:12;;;;;;;2.30;0.90;;;5.10;86.30;;;;;;5096122;28;20405;-84
2021/11/04 02:19:48;;;;;;;4.35;1.00;;;5.00;86.30;;;;;;5079572;28;20052;-84
2021/11/04 02:22:28;;;;;;;3.78;0.70;;;5.00;86.30;;;;;;5095523;28;20055;-84
2021/11/04 02:25:16;;;;;;;2.35;0.90;;;4.90;86.40;;;;;;5085312;28;20374;-85
2021/11/04 02:27:48;;;;;;;1.20;0.75;;;4.90;86.40;;;;;;5076461;28;20048;-85
2021/11/04 02:30:17;;;;;;;1.03;0.80;;;4.80;86.50;;;;;;5076949;28;20417;-85
2021/11/04 02:32:46;;;;;;;1.42;0.90;;;4.90;86.40;;;;;;5091627;28;20056;-85
2021/11/04 02:35:15;;;;;;;3.55;0.70;;;4.90;86.20;;;;;;5076499;28;20041;-86
2021/11/04 02:37:44;;;;;;;2.55;0.93;;;4.90;86.10;;;;;;5091218;28;20401;-85
2021/11/04 02:40:13;;;;;;;4.55;0.90;;;4.90;86.10;;;;;;5072960;28;20044;-85
2021/11/04 02:42:42;;;;;;;0.90;0.60;;;4.80;86.20;;;;;;5096787;28;20409;-85
2021/11/04 02:45:10;;;;;;;1.67;0.70;;;4.80;86.30;;;;;;5096283;28;20521;-84
2021/11/04 02:47:39;;;;;;;2.30;0.60;;;4.70;86.30;;;;;;5081429;28;20245;-84
2021/11/04 02:50:08;;;;;;;1.00;0.50;;;4.70;86.40;;;;;;5076878;28;20067;-83
2021/11/04 02:52:36;;;;;;;3.03;0.60;;;4.70;86.40;;;;;;5084041;28;20497;-84
2021/11/04 02:55:06;;;;;;;3.47;0.70;;;4.80;86.30;;;;;;5085465;28;20059;-84
2021/11/04 02:57:46;;;;;;;1.08;0.50;;;4.80;86.10;;;;;;5081173;28;20060;-84
2021/11/04 03:00:16;;;;;;;0.55;0.50;;;4.80;85.80;;;;;;5094948;28;20044;-84
2021/11/04 03:02:44;;;;;;;3.67;0.70;;;4.90;85.50;;;;;;5093043;28;20446;-84
2021/11/04 03:05:12;;;;;;;0.90;0.22;;;5.00;85.20;;;;;;5097469;28;20425;-84
2021/11/04 03:07:40;;;;;;;0.30;0.30;;;5.00;85.00;;;;;;5083177;28;20056;-83
2021/11/04 03:10:08;;;;;;;0.95;0.40;;;4.90;84.80;;;;;;5078228;28;20051;-83
2021/11/04 03:12:36;;;;;;;1.42;0.40;;;4.90;84.80;;;;;;5078350;28;20061;-84
2021/11/04 03:15:11;;;;;;;1.42;0.52;;;4.80;84.90;;;;;;5088560;28;20052;-84
2021/11/04 03:17:40;;;;;;;1.15;0.50;;;4.80;85.00;;;;;;5094130;28;20059;-84
2021/11/04 03:20:11;;;;;;;2.00;0.60;;;4.70;85.20;;;;;;5075381;28;20052;-85
2021/11/04 03:22:40;;;;;;;1.25;0.38;;;4.70;85.40;;;;;;5084919;28;20409;-85
2021/11/04 03:25:08;;;;;;;2.97;0.60;;;4.60;85.50;;;;;;5083460;28;20051;-84
2021/11/04 03:27:40;;;;;;;3.83;0.73;;;4.60;85.50;;;;;;5090724;28;20047;-84
2021/11/04 03:30:10;;;;;;;1.83;0.60;;;4.60;85.60;;;;;;5094149;28;20404;-85
2021/11/04 03:32:39;;;;;;;1.55;0.60;;;4.50;85.60;;;;;;5092306;28;20048;-85
2021/11/04 03:35:08;;;;;;;2.78;0.50;;;4.60;85.60;;;;;;5095104;28;20043;-84
2021/11/04 03:37:43;;;;;;;2.92;0.88;;;4.60;85.50;;;;;;5093111;28;20059;-84
2021/11/04 03:40:12;;;;;;;1.45;0.38;;;4.50;85.60;;;;;;5094611;28;20036;-85
2021/11/04 03:42:41;;;;;;;2.10;0.55;;;4.50;85.70;;;;;;5074217;28;20045;-85
2021/11/04 03:45:11;;;;;;;2.80;0.60;;;4.40;85.70;;;;;;5075359;28;20486;-85
2021/11/04 03:47:40;;;;;;;1.00;0.50;;;4.40;85.70;;;;;;5074627;28;20049;-85
2021/11/04 03:50:09;;;;;;;3.08;0.70;;;4.30;85.80;;;;;;5085024;28;20059;-83
2021/11/04 03:52:42;;;;;;;1.00;0.57;;;4.30;85.90;;;;;;5088161;28;20053;-85
2021/11/04 03:55:13;;;;;;;2.83;0.45;;;4.20;86.10;;;;;;5078158;28;20055;-85
2021/11/04 03:57:41;;;;;;;4.90;0.60;;;4.20;86.20;;;;;;5088080;28;20051;-85
2021/11/04 04:00:12;;;;;;;4.45;0.77;;;4.20;86.20;;;;;;5093456;28;20397;-85
2021/11/04 04:02:43;;;;;;;5.60;0.60;;;4.10;86.30;;;;;;5075253;28;20048;-85
2021/11/04 04:05:12;;;;;;;3.42;0.70;;;4.10;86.40;;;;;;5074469;28;20063;-85
2021/11/04 04:07:40;;;;;;;4.30;0.50;;;4.00;86.40;;;;;;5084950;28;20504;-85
2021/11/04 04:10:08;;;;;;;3.15;0.70;;;4.00;86.50;;;;;;5085679;28;20516;-84
2021/11/04 04:12:35;;;;;;;1.15;0.35;;;4.00;86.50;;;;;;5073294;28;20061;-83
2021/11/04 04:15:03;;;;;;;1.48;0.38;;;4.00;86.60;;;;;;5090941;28;20489;-84
2021/11/04 04:17:31;;;;;;;1.52;0.50;;;4.00;86.60;;;;;;5094651;28;20222;-86
2021/11/04 04:19:58;;;;;;;1.00;0.40;;;3.90;86.60;;;;;;5084877;28;20032;-84
2021/11/04 04:22:26;;;;;;;2.90;0.70;;;3.90;86.60;;;;;;5093008;28;20405;-85
2021/11/04 04:24:54;;;;;;;2.00;0.68;;;3.80;86.70;;;;;;5075389;28;20049;-85
2021/11/04 04:27:21;;;;;;;0.95;0.52;;;3.80;86.90;;;;;;5074070;28;20056;-85
2021/11/04 04:29:49;;;;;;;1.05;0.60;;;3.80;86.90;;;;;;5081939;28;20040;-85
2021/11/04 04:32:16;;;;;;;4.63;0.70;;;3.80;87.00;;;;;;5094164;28;20055;-84
2021/11/04 04:34:44;;;;;;;7.43;0.80;;;3.70;87.20;;;;;;5078171;28;20056;-85
2021/11/04 04:37:12;;;;;;;1.60;0.60;;;3.70;87.30;;;;;;5073508;28;20412;-85
2021/11/04 04:39:39;;;;;;;1.65;0.55;;;3.70;87.40;;;;;;5078937;28;20044;-85
2021/11/04 04:42:08;;;;;;;4.18;0.70;;;3.70;87.40;;;;;;5078811;28;20060;-85
2021/11/04 04:44:37;;;;;;;2.85;0.80;;;3.60;87.40;;;;;;5076349;28;20051;-85
2021/11/04 04:47:05;;;;;;;3.80;0.50;;;3.60;87.50;;;;;;5085844;28;20048;-85
2021/11/04 04:49:33;;;;;;;2.00;0.80;;;3.60;87.60;;;;;;5085604;28;20060;-85
2021/11/04 04:52:01;;;;;;;4.05;0.70;;;3.60;87.70;;;;;;5073369;28;20056;-85
2021/11/04 04:54:29;;;;;;;1.70;0.70;;;3.50;87.70;;;;;;5072959;28;20049;-85
2021/11/04 04:56:57;;;;;;;2.00;0.85;;;3.50;87.90;;;;;;5073924;28;20044;-84
2021/11/04 04:59:24;;;;;;;0.82;0.57;;;3.50;88.10;;;;;;5072121;28;20040;-85
2021/11/04 05:01:52;;;;;;;1.33;0.65;;;3.50;88.10;;;;;;5071978;28;20044;-85
2021/11/04 05:04:20;;;;;;;2.65;0.70;;;3.50;88.10;;;;;;5077624;28;20055;-85
2021/11/04 05:06:47;;;;;;;0.98;0.77;;;3.60;88.10;;;;;;5091554;28;20044;-85
2021/11/04 05:09:15;;;;;;;0.98;0.65;;;3.50;88.00;;;;;;5082556;28;20054;-85
2021/11/04 05:11:42;;;;;;;3.38;0.80;;;3.50;88.00;;;;;;5088564;28;20405;-85
2021/11/04 05:14:10;;;;;;;0.80;0.60;;;3.50;88.00;;;;;;5086131;28;20041;-85
2021/11/04 05:16:37;;;;;;;0.55;0.38;;;3.50;88.10;;;;;;5071976;28;20041;-85
2021/11/04 05:19:05;;;;;;;1.50;0.70;;;3.40;88.10;;;;;;5093054;28;20409;-85
2021/11/04 05:21:33;;;;;;;3.92;0.80;;;3.40;88.30;;;;;;5093317;28;20047;-85
2021/11/04 05:24:01;;;;;;;1.67;0.63;;;3.30;88.20;;;;;;5080244;28;20051;-85
2021/11/04 05:26:28;;;;;;;0.80;0.60;;;3.30;88.30;;;;;;5082706;28;20033;-85
2021/11/04 05:28:56;;;;;;;1.50;0.70;;;3.30;88.30;;;;;;5072782;28;20047;-86
2021/11/04 05:31:23;;;;;;;2.28;1.02;;;3.30;88.50;;;;;;5079073;28;20048;-85
2021/11/04 05:33:53;;;;;;;1.77;0.90;;;3.30;88.50;;;;;;5092475;28;20044;-86
2021/11/04 05:36:22;;;;;;;2.65;0.73;;;3.20;88.60;;;;;;5074061;28;20359;-86
2021/11/04 05:38:50;;;;;;;5.07;0.98;;;3.20;88.70;;;;;;5084488;28;20446;-85
2021/11/04 05:41:18;;;;;;;3.60;0.70;;;3.10;88.70;;;;;;5076915;28;20402;-86
2021/11/04 05:43:46;;;;;;;4.10;0.60;;;3.10;88.80;;;;;;5087958;28;20051;-86
2021/11/04 05:46:13;;;;;;;2.30;0.90;;;3.00;88.90;;;;;;5088652;28;20051;-86
2021/11/04 05:48:41;;;;;;;6.30;0.88;;;3.10;89.10;;;;;;5083510;28;20107;-84
2021/11/04 05:51:09;;;;;;;7.22;0.88;;;3.00;89.00;;;;;;5095215;28;20075;-84
2021/11/04 05:53:37;;;;;;;2.33;0.70;;;3.00;89.10;;;;;;5113037;28;20039;-84
2021/11/04 05:56:05;;;;;;;2.33;0.95;;;3.00;89.30;;;;;;5077355;28;20047;-85
2021/11/04 05:58:34;;;;;;;2.38;0.77;;;2.90;89.20;;;;;;5093482;28;20145;-86
2021/11/04 06:01:03;;;;;;;1.92;0.70;;;2.90;89.40;;;;;;5095945;28;20040;-86
2021/11/04 06:03:30;;;;;;;2.45;0.82;;;2.90;89.40;;;;;;5081017;28;20071;-86
2021/11/04 06:05:58;;;;;;;3.42;0.80;;;2.80;89.40;;;;;;5078607;28;20374;-85
2021/11/04 06:08:26;;;;;;;2.22;0.90;;;2.90;89.60;;;;;;5088592;28;20056;-85
2021/11/04 06:10:54;;;;;;;3.33;0.90;;;2.80;89.60;;;;;;5073163;28;20032;-85
2021/11/04 06:13:21;;;;;;;1.70;0.70;;;2.90;89.70;;;;;;5080751;28;20055;-85
2021/11/04 06:15:49;;;;;;;5.75;0.70;;;2.80;89.80;;;;;;5075984;28;20040;-84
2021/11/04 06:18:17;;;;;;;4.60;0.82;;;2.90;89.90;;;;;;5072781;28;20075;-84
2021/11/04 06:20:44;;;;;;;3.20;0.80;;;3.00;89.80;;;;;;5085463;28;20056;-84
2021/11/04 06:23:12;;;;;;;4.03;0.70;;;3.00;89.80;;;;;;5091736;28;20133;-84
2021/11/04 06:25:40;;;;;;;4.70;0.82;;;3.10;89.70;;;;;;5087932;28;20037;-84
2021/11/04 06:28:07;;;;;;;5.95;0.90;;;3.00;89.70;;;;;;5072242;28;20048;-85
2021/11/04 06:30:35;;;;;;;3.33;0.80;;;3.10;89.60;;;;;;5093219;28;20046;-84
2021/11/04 06:33:03;;;;;;;3.63;0.60;;;3.10;89.50;;;;;;5112895;28;20058;-85
2021/11/04 06:35:30;;;;;;;1.85;0.80;;;3.10;89.60;;;;;;5102130;28;20304;-86
2021/11/04 06:37:58;;;;;;;2.97;0.80;;;3.00;89.50;;;;;;5091536;28;20493;-85
2021/11/04 06:40:27;;;;;;;2.35;0.70;;;3.00;89.60;;;;;;5092086;28;20044;-86
2021/11/04 06:43:00;;;;;;;3.70;1.08;;;3.00;89.70;;;;;;5092398;28;20040;-85
2021/11/04 06:45:29;;;;;;;2.05;0.57;;;3.00;89.70;;;;;;5084845;28;20048;-84
2021/11/04 06:48:00;;;;;;;6.03;0.75;;;3.00;89.80;;;;;;5090103;28;20056;-86
2021/11/04 06:50:31;;;;;;;0.93;0.60;;;3.00;89.70;;;;;;5090664;28;20044;-85
2021/11/04 06:53:08;;;;;;;3.13;0.60;;;3.10;89.70;;;;;;5092200;28;20052;-86
2021/11/04 06:55:39;;;;;;;0.52;0.47;;;3.10;89.60;;;;;;5071869;28;20048;-86
2021/11/04 06:58:14;;;;;;;1.63;0.57;;;3.20;89.50;;;;;;5077035;28;20048;-86
2021/11/04 07:00:46;;;;;;;0.95;0.50;;;3.20;89.30;;;;;;5085520;28;20051;-86
2021/11/04 07:03:26;;;;;;;1.92;0.60;;;3.30;89.10;;;;;;5090831;28;20043;-86
2021/11/04 07:05:59;;;;;;;1.50;0.40;;;3.30;88.90;;;;;;5085067;28;20044;-85
2021/11/04 07:08:28;;;;;;;10.02;0.75;;;3.30;88.90;;;;;;5076510;28;20040;-87
2021/11/04 07:10:59;;;;;;;2.13;0.50;;;3.20;88.90;;;;;;5090685;28;20047;-87
2021/11/04 07:13:31;;;;;;;2.67;0.40;;;3.20;88.90;;;;;;5102689;28;20044;-88
2021/11/04 07:16:01;;;;;;;4.85;0.60;;;3.20;88.90;;;;;;5089483;28;20043;-89
2021/11/04 07:18:29;;;;;;;5.85;0.47;;;3.20;89.00;;;;;;5092854;28;20505;-89
2021/11/04 07:21:04;;;;;;;2.38;0.52;;;3.20;89.00;;;;;;5098872;28;20500;-89
2021/11/04 07:23:48;;;;;;;6.00;1.10;;;3.10;89.00;;;;;;5095265;28;20047;-89
2021/11/04 07:26:15;;;;;;;2.58;0.50;;;3.10;89.00;;;;;;5079501;28;20401;-89
2021/11/04 07:28:44;;;;;;;1.85;0.55;;;3.10;89.00;;;;;;5089670;28;20044;-89
2021/11/04 07:31:12;;;;;;;2.30;0.60;;;3.10;89.10;;;;;;5079793;28;20065;-89
2021/11/04 07:33:44;;;;;;;3.83;0.50;;;3.10;89.10;;;;;;5104212;28;20058;-88
2021/11/04 07:36:15;;;;;;;2.33;0.43;;;3.10;89.10;;;;;;5112576;28;20044;-89
2021/11/04 07:38:47;;;;;;;2.40;0.50;;;3.00;89.10;;;;;;5106905;28;20052;-87
2021/11/04 07:41:15;;;;;;;7.35;0.93;;;3.10;89.10;;;;;;5092244;28;20071;-87
2021/11/04 07:43:45;;;;;;;1.27;0.40;;;3.20;89.10;;;;;;5092377;28;20056;-88
2021/11/04 07:46:13;;;;;;;2.67;0.50;;;3.20;89.00;;;;;;5082001;28;20059;-88
2021/11/04 07:48:42;;;;;;;4.43;0.70;;;3.20;89.00;;;;;;5076315;28;20053;-87
2021/11/04 07:51:10;;;;;;;4.82;0.80;;;3.20;88.90;;;;;;5075821;28;20060;-87
2021/11/04 07:53:39;;;;;;;3.40;0.70;;;3.20;88.90;;;;;;5088415;28;20441;-89
2021/11/04 07:56:09;;;;;;;9.63;1.13;;;3.20;88.80;;;;;;5095857;28;20485;-88
2021/11/04 07:58:37;;;;;;;4.28;0.47;;;3.10;88.90;;;;;;5087897;27;20052;-87
2021/11/04 08:01:05;;;;;;;4.07;0.40;;;3.20;89.00;;;;;;5077794;28;20040;-88
2021/11/04 08:03:33;;;;;;;2.30;0.40;;;3.20;89.00;;;;;;5094027;28;20051;-87
2021/11/04 08:06:00;;;;;;;3.00;0.68;;;3.20;88.90;;;;;;5097688;28;20048;-87
2021/11/04 08:08:28;;;;;;;1.83;0.68;;;3.20;88.90;;;;;;5093549;28;20044;-86
2021/11/04 08:10:56;;;;;;;1.73;0.63;;;3.30;88.80;;;;;;5086379;28;20049;-86
2021/11/04 08:13:24;;;;;;;2.65;0.40;;;3.30;88.80;;;;;;5080742;28;20048;-84
2021/11/04 08:15:52;;;;;;;3.40;0.60;;;3.30;88.70;;;;;;5094721;28;20059;-85
2021/11/04 08:18:19;;;;;;;3.53;0.93;;;3.40;88.70;;;;;;5089900;28;20044;-86
2021/11/04 08:20:47;;;;;;;6.10;0.73;;;3.50;88.60;;;;;;5076450;28;20040;-86
2021/11/04 08:23:15;;;;;;;3.35;0.77;;;3.50;88.40;;;;;;5078165;28;20064;-85
2021/11/04 08:25:45;;;;;;;2.25;0.90;;;3.50;88.20;;;;;;5082446;28;20036;-88
2021/11/04 08:28:12;;;;;;;1.60;0.80;;;3.50;88.10;;;;;;5084382;28;20046;-87
2021/11/04 08:30:40;;;;;;;2.28;0.80;;;3.50;88.00;;;;;;5093082;28;20041;-87
2021/11/04 08:33:11;;;;;;;1.88;0.70;;;3.50;88.00;;;;;;5090275;28;20168;-86
2021/11/04 08:35:39;;;;;;;0.93;0.65;;;3.50;88.00;;;;;;5079639;28;20056;-87
2021/11/04 08:38:06;;;;;;;1.75;0.40;;;3.60;88.00;;;;;;5078261;28;20044;-88
2021/11/04 08:40:34;;;;;;;3.60;0.80;;;3.70;88.00;;;;;;5087123;28;20045;-88
2021/11/04 08:43:03;;;;;;;3.05;0.80;;;3.80;87.80;;;;;;5080270;28;20048;-87
2021/11/04 08:45:31;;;;;;;3.50;0.90;;;3.80;87.70;;;;;;5080393;28;20064;-86
2021/11/04 08:48:00;;;;;;;0.63;0.50;;;3.90;87.50;;;;;;5080519;28;20055;-87
2021/11/04 08:50:27;;;;;;;2.67;0.70;;;3.90;87.20;;;;;;5081197;28;20049;-87
2021/11/04 08:52:58;;;;;;;2.30;0.73;;;4.00;87.10;;;;;;5078999;28;20047;-88
2021/11/04 08:55:25;;;;;;;2.33;0.98;;;4.10;87.00;;;;;;5060759;28;20048;-85
2021/11/04 08:57:54;;;;;;;2.72;0.77;;;4.10;86.90;;;;;;5077835;28;20052;-87
2021/11/04 09:00:22;;;;;;;5.88;0.85;;;4.20;86.80;;;;;;5078542;28;20052;-88
2021/11/04 09:02:50;;;;;;;2.67;0.90;;;4.20;86.70;;;;;;5079342;28;20047;-87
2021/11/04 09:05:18;;;;;;;1.42;0.70;;;4.30;86.60;;;;;;5075795;28;20391;-88
2021/11/04 09:07:45;;;;;;;1.83;0.70;;;4.30;86.50;;;;;;5076805;28;20366;-87
2021/11/04 09:10:15;;;;;;;1.77;0.88;;;4.40;86.40;;;;;;5077755;28;20040;-88
2021/11/04 09:12:43;;;;;;;2.47;0.70;;;4.40;86.10;;;;;;5077396;28;20053;-87
2021/11/04 09:15:11;;;;;;;1.88;0.43;;;4.50;86.10;;;;;;5076379;28;20067;-87
2021/11/04 09:17:41;;;;;;;4.32;0.63;;;4.50;85.80;;;;;;5080871;28;20040;-86
2021/11/04 09:20:11;;;;;;;2.00;0.70;;;4.60;85.70;;;;;;5058377;28;20044;-85
2021/11/04 09:22:46;;;;;;;4.80;0.57;;;4.70;85.40;;;;;;5078616;28;20052;-86
2021/11/04 09:25:17;;;;;;;1.95;0.60;;;4.80;85.00;;;;;;5082705;28;20406;-86
2021/11/04 09:27:46;;;;;;;1.30;0.77;;;4.80;84.90;;;;;;5079911;28;20051;-87
2021/11/04 09:30:15;;;;;;;2.80;0.40;;;4.90;84.80;;;;;;5077400;28;20045;-86
2021/11/04 09:32:46;;;;;;;3.92;0.40;;;5.00;84.80;;;;;;5079229;28;20064;-87
2021/11/04 09:35:15;;;;;;;6.10;0.52;;;5.00;84.30;;;;;;5083235;28;20050;-86
2021/11/04 09:37:43;;;;;;;2.35;0.80;;;5.10;83.80;;;;;;5081210;28;20071;-87
2021/11/04 09:40:12;;;;;;;3.40;0.40;;;5.10;83.50;;;;;;5082666;28;20052;-88
2021/11/04 09:42:40;;;;;;;3.65;0.47;;;5.20;83.50;;;;;;5081559;28;20041;-87
2021/11/04 09:45:08;;;;;;;1.60;0.70;;;5.30;83.20;;;;;;5083722;28;20056;-87
2021/11/04 09:47:36;;;;;;;3.78;0.82;;;5.30;82.90;;;;;;5085709;28;20044;-86
2021/11/04 09:50:07;;;;;;;0.63;0.30;;;5.30;82.70;;;;;;5078423;28;20417;-88
2021/11/04 09:52:37;;;;;;;4.20;0.70;;;5.40;82.60;;;;;;5077930;28;20052;-87
2021/11/04 09:55:13;;;;;;;1.75;0.60;;;5.50;82.40;;;;;;5084720;28;20056;-87
2021/11/04 09:57:41;;;;;;;2.95;0.47;;;5.50;82.30;;;;;;5082901;28;20048;-87
2021/11/04 10:00:10;;;;;;;2.47;0.50;;;5.60;82.40;;;;;;5080671;28;20048;-87
2021/11/04 10:02:41;;;;;;;1.40;0.57;;;5.70;82.20;;;;;;5088423;28;20053;-86
2021/11/04 10:05:15;;;;;;;1.55;0.63;;;5.70;81.70;;;;;;5090138;28;20413;-86
2021/11/04 10:07:50;;;;;;;4.20;0.60;;;5.80;81.80;;;;;;5086832;28;20387;-86
2021/11/04 10:10:19;;;;;;;2.42;0.80;;;5.90;81.70;;;;;;5082582;28;20048;-89
2021/11/04 10:13:06;;;;;;;2.10;0.60;;;6.00;81.70;;;;;;5064039;28;20044;-87
2021/11/04 10:15:37;;;;;;;4.70;0.75;;;6.00;81.50;;;;;;5082178;28;20048;-88
2021/11/04 10:18:21;;;;;;;3.08;0.70;;;6.20;81.30;;;;;;5080856;28;20044;-88
2021/11/04 10:20:56;;;;;;;2.00;0.73;;;6.30;80.90;;;;;;5061804;28;20056;-87
2021/11/04 10:23:34;;;;;;;2.17;0.57;;;6.30;80.60;;;;;;5079060;28;20070;-86
2021/11/04 10:26:04;;;;;;;2.60;0.40;;;6.40;79.30;;;;;;5081925;28;20072;-87
2021/11/04 10:28:33;;;;;;;0.50;0.30;;;6.40;79.10;;;;;;5082313;28;20048;-85
2021/11/04 10:31:01;;;;;;;1.67;0.47;;;6.50;78.90;;;;;;5079079;28;20048;-86
2021/11/04 10:33:31;;;;;;;1.50;0.32;;;6.50;78.50;;;;;;5083558;28;20056;-87
2021/11/04 10:36:09;;;;;;;2.60;0.47;;;6.60;78.60;;;;;;5091194;28;20044;-86
2021/11/04 10:38:46;;;;;;;2.03;0.75;;;6.80;78.50;;;;;;5087936;28;20076;-88
2021/11/04 10:41:33;;;;;;;1.30;0.70;;;6.80;78.50;;;;;;5092476;28;20051;-88
2021/11/04 10:44:08;;;;;;;2.28;0.60;;;7.00;78.20;;;;;;5081707;28;20048;-86
2021/11/04 10:46:54;;;;;;;4.65;0.75;;;7.10;77.00;;;;;;5065473;28;20040;-86
2021/11/04 10:49:27;;;;;;;2.47;0.55;;;7.20;76.70;;;;;;5081943;28;20048;-87
2021/11/04 10:52:07;;;;;;;4.38;0.90;;;7.30;75.80;;;;;;5079483;28;20051;-87
2021/11/04 10:54:45;;;;;;;2.75;0.45;;;7.40;75.80;;;;;;5079726;28;20040;-87
2021/11/04 10:57:31;;;;;;;2.42;0.80;;;7.50;74.50;;;;;;5082565;28;20052;-87
2021/11/04 11:00:20;;;;;;;2.65;0.70;;;7.70;74.30;;;;;;5084450;28;20041;-87
2021/11/04 11:02:57;;;;;;;4.32;0.60;;;7.80;74.20;;;;;;5082771;28;20052;-88
2021/11/04 11:05:26;;;;;;;3.20;0.73;;;7.90;74.30;;;;;;5082800;28;20048;-86
2021/11/04 11:07:55;;;;;;;1.73;1.10;;;8.00;74.10;;;;;;5079827;28;20049;-87
2021/11/04 11:10:23;;;;;;;5.07;1.15;;;8.20;73.80;;;;;;5081710;28;20048;-88
2021/11/04 11:12:51;;;;;;;3.50;1.00;;;8.30;73.70;;;;;;5082262;28;20056;-87
2021/11/04 11:15:18;;;;;;;2.47;0.90;;;8.30;73.20;;;;;;5084325;28;20040;-87
2021/11/04 11:17:48;;;;;;;3.38;0.73;;;8.30;72.50;;;;;;5084435;28;20044;-88
2021/11/04 11:20:19;;;;;;;4.00;0.80;;;8.30;72.10;;;;;;5083407;28;20040;-88
2021/11/04 11:22:48;;;;;;;4.18;0.73;;;8.30;71.90;;;;;;5088784;28;20048;-87
2021/11/04 11:25:15;;;;;;;2.95;0.80;;;8.30;71.90;;;;;;5088990;28;20040;-87
2021/11/04 11:27:44;;;;;;;1.98;0.55;;;8.50;71.90;;;;;;5072293;28;20414;-89
2021/11/04 11:30:12;;;;;;;2.67;0.60;;;8.70;71.10;;;;;;5092401;28;20040;-87
2021/11/04 11:32:41;;;;;;;3.30;0.80;;;8.90;70.60;;;;;;5085348;28;20048;-86
2021/11/04 11:35:18;;;;;;;1.98;0.60;;;9.20;70.80;;;;;;5086535;28;20052;-88
2021/11/04 11:37:56;;;;;;;3.53;0.75;;;9.60;70.20;;;;;;5080489;28;20044;-88
2021/11/04 11:40:29;;;;;;;1.70;0.50;;;10.10;68.20;;;;;;5084413;28;20048;-87
2021/11/04 11:43:11;;;;;;;5.53;0.60;;;10.40;67.80;;;;;;5083086;28;20519;-88
2021/11/04 11:45:41;;;;;;;2.40;0.60;;;10.80;67.20;;;;;;5079994;28;20425;-88
2021/11/04 11:48:24;;;;;;;2.25;0.60;;;11.20;65.70;;;;;;5080672;28;20044;-87
2021/11/04 11:50:54;;;;;;;1.58;0.60;;;11.30;63.70;;;;;;5082019;28;20051;-87
2021/11/04 11:53:40;;;;;;;3.80;0.63;;;11.50;62.80;;;;;;5082020;28;20056;-86
2021/11/04 11:56:21;;;;;;;3.90;0.57;;;11.60;61.70;;;;;;5080783;28;20063;-87
2021/11/04 11:59:28;;;;;;;3.10;0.70;;;11.80;59.70;;;;;;5080174;28;20048;-87
2021/11/04 12:01:55;;;;;;;1.80;0.50;;;11.90;60.70;;;;;;5082116;28;20509;-88
2021/11/04 12:04:33;;;;;;;1.95;0.70;;;12.20;60.70;;;;;;5081973;28;20048;-87
2021/11/04 12:07:00;;;;;;;1.42;0.52;;;12.40;57.80;;;;;;5082829;28;20068;-86
2021/11/04 12:09:43;;;;;;;1.63;0.50;;;12.40;58.00;;;;;;5082466;28;20048;-88
2021/11/04 12:12:41;;;;;;;0.85;0.50;;;12.30;58.10;;;;;;5084118;28;20473;-88
2021/11/04 12:15:08;;;;;;;2.65;0.55;;;12.30;57.40;;;;;;5083956;28;20051;-87
2021/11/04 12:17:36;;;;;;;1.95;0.75;;;12.50;57.60;;;;;;5082656;28;20059;-87
2021/11/04 12:20:04;;;;;;;1.67;0.55;;;13.00;57.30;;;;;;5082178;28;20055;-86
2021/11/04 12:22:40;;;;;;;1.08;0.60;;;13.60;56.80;;;;;;5082173;28;20375;-87
2021/11/04 12:25:16;;;;;;;2.67;0.68;;;14.20;56.10;;;;;;5080969;28;20048;-88
2021/11/04 12:27:45;;;;;;;2.05;0.80;;;14.80;54.50;;;;;;5092904;28;20051;-90
2021/11/04 12:30:19;;;;;;;1.88;0.65;;;14.70;52.90;;;;;;5099132;28;20067;-87
2021/11/04 12:32:57;;;;;;;;;;;14.20;52.20;;;;;;5101334;28;20055;-88
2021/11/04 12:35:38;;;;;;;1.33;0.88;;;14.00;53.10;;;;;;5102796;28;19927;-89
2021/11/04 12:38:05;;;;;;;3.65;0.52;;;14.20;51.30;;;;;;5103831;28;20052;-87
2021/11/04 12:40:33;;;;;;;3.72;0.80;;;13.80;51.90;;;;;;5103013;28;20044;-85
2021/11/04 12:43:11;;;;;;;5.65;0.50;;;13.30;51.80;;;;;;5107937;28;20036;-89
2021/11/04 12:45:44;;;;;;;2.83;0.60;;;12.60;52.50;;;;;;5104337;28;20051;-90
2021/11/04 12:48:13;;;;;;;3.58;0.60;;;11.80;54.20;;;;;;5106443;28;20047;-91
2021/11/04 12:50:56;;;;;;;5.18;0.70;;;11.20;56.00;;;;;;5110345;28;20044;-92
2021/11/04 12:53:25;;;;;;;2.33;0.57;;;10.80;57.60;;;;;;5110277;28;20044;-91
2021/11/04 12:55:52;;;;;;;3.03;0.57;;;10.80;58.30;;;;;;5106064;28;20408;-84
2021/11/04 12:58:20;;;;;;;1.83;0.50;;;10.70;58.80;;;;;;5098912;28;20052;-86
2021/11/04 13:01:00;;;;;;;1.63;0.65;;;10.40;59.30;;;;;;5082737;28;20048;-86
2021/11/04 13:03:37;;;;;;;3.15;0.65;;;10.10;60.20;;;;;;5095345;28;20473;-88
2021/11/04 13:06:08;;;;;;;4.63;0.73;;;10.00;60.90;;;;;;5100431;28;20043;-85
2021/11/04 13:08:37;;;;;;;1.38;0.60;;;9.90;61.20;;;;;;5101874;28;20496;-87
2021/11/04 13:11:12;;;;;;;3.25;0.77;;;9.80;61.50;;;;;;5101030;28;20055;-89